createdAt,value
2017-05-17T00:00:00.819Z,36.52
2017-05-17T00:01:10.430Z,36.43
2017-05-17T00:02:20.646Z,36.52
2017-05-17T00:03:30.568Z,36.52
2017-05-17T00:04:40.482Z,36.43
2017-05-17T00:05:50.712Z,36.62
2017-05-17T00:07:00.630Z,36.62
2017-05-17T00:08:10.536Z,36.43
2017-05-17T00:09:20.145Z,36.72
2017-05-17T00:10:30.365Z,36.62
2017-05-17T00:11:39.979Z,36.33
2017-05-17T00:12:49.896Z,36.43
2017-05-17T00:14:00.117Z,36.72
2017-05-17T00:15:10.106Z,36.33
2017-05-17T00:16:19.705Z,36.43
2017-05-17T00:17:29.930Z,36.62
2017-05-17T00:18:39.536Z,36.33
2017-05-17T00:19:49.454Z,36.52
2017-05-17T00:20:59.378Z,36.14
2017-05-17T00:22:09.617Z,36.52
2017-05-17T00:23:19.833Z,36.52
2017-05-17T00:24:29.438Z,36.43
2017-05-17T00:25:39.350Z,36.24
2017-05-17T00:26:49.272Z,36.24
2017-05-17T00:27:59.200Z,36.14
2017-05-17T00:29:09.418Z,36.43
2017-05-17T00:30:19.338Z,36.33
2017-05-17T00:31:29.264Z,36.43
2017-05-17T00:32:38.922Z,36.33
2017-05-17T00:33:49.162Z,36.52
2017-05-17T00:34:58.778Z,36.33
2017-05-17T00:36:08.692Z,36.12
2017-05-17T00:37:18.321Z,36.52
2017-05-17T00:38:28.247Z,36.24
2017-05-17T00:39:38.457Z,36.52
2017-05-17T00:40:48.679Z,36.43
2017-05-17T00:41:58.965Z,36.33
2017-05-17T00:43:08.572Z,36.52
2017-05-17T00:44:17.862Z,36.52
2017-05-17T00:45:27.479Z,36.52
2017-05-17T00:46:37.404Z,36.52
2017-05-17T00:47:47.620Z,36.52
2017-05-17T00:48:57.846Z,36.52
2017-05-17T00:50:07.813Z,36.72
2017-05-17T00:51:17.750Z,36.52
2017-05-17T00:52:27.658Z,36.52
2017-05-17T00:53:37.564Z,36.43
2017-05-17T00:54:47.776Z,36.62
2017-05-17T00:55:57.997Z,36.51
2017-05-17T00:57:07.909Z,36.43
2017-05-17T00:58:17.832Z,36.52
2017-05-17T00:59:28.059Z,36.51
2017-05-17T01:00:37.978Z,36.52
2017-05-17T01:01:48.209Z,36.62
2017-05-17T01:02:58.814Z,36.62
2017-05-17T01:04:08.714Z,36.41
2017-05-17T01:05:18.930Z,36.62
2017-05-17T01:06:28.547Z,36.43
2017-05-17T01:07:38.480Z,36.62
2017-05-17T01:08:47.794Z,36.72
2017-05-17T01:09:58.031Z,36.43
2017-05-17T01:11:07.335Z,36.62
2017-05-17T01:12:17.252Z,36.62
2017-05-17T01:13:27.195Z,36.43
2017-05-17T01:14:36.499Z,36.52
2017-05-17T01:15:46.411Z,36.41
2017-05-17T01:16:56.354Z,36.52
2017-05-17T01:18:06.260Z,36.52
2017-05-17T01:19:16.482Z,36.62
2017-05-17T01:20:26.393Z,36.51
2017-05-17T01:21:36.629Z,36.51
2017-05-17T01:22:46.846Z,36.51
2017-05-17T01:23:57.061Z,36.62
2017-05-17T01:25:06.670Z,36.62
2017-05-17T01:26:16.569Z,36.62
2017-05-17T01:27:26.481Z,36.72
2017-05-17T01:28:36.094Z,36.62
2017-05-17T01:29:46.021Z,36.72
2017-05-17T01:30:55.936Z,36.72
2017-05-17T01:32:05.547Z,36.8
2017-05-17T01:33:15.923Z,36.91
2017-05-17T01:34:26.157Z,36.72
2017-05-17T01:35:36.369Z,36.72
2017-05-17T01:36:46.598Z,36.91
2017-05-17T01:37:56.830Z,36.7
2017-05-17T01:39:06.748Z,36.82
2017-05-17T01:40:16.720Z,36.9
2017-05-17T01:41:26.998Z,36.82
2017-05-17T01:42:37.224Z,36.8
2017-05-17T01:43:47.149Z,36.72
2017-05-17T01:44:57.067Z,36.91
2017-05-17T01:46:06.992Z,36.82
2017-05-17T01:47:16.931Z,36.82
2017-05-17T01:48:26.554Z,36.72
2017-05-17T01:49:36.794Z,36.82
2017-05-17T01:50:46.713Z,36.72
2017-05-17T01:51:56.950Z,36.82
2017-05-17T01:53:07.168Z,36.91
2017-05-17T01:54:17.420Z,36.82
2017-05-17T01:55:27.348Z,36.72
2017-05-17T01:56:36.665Z,36.91
2017-05-17T01:57:46.577Z,36.82
2017-05-17T01:58:56.798Z,36.91
2017-05-17T02:00:06.719Z,36.72
2017-05-17T02:01:16.637Z,36.91
2017-05-17T02:02:26.288Z,36.82
2017-05-17T02:03:35.283Z,36.91
2017-05-17T02:04:45.196Z,36.9
2017-05-17T02:05:55.414Z,36.91
2017-05-17T02:07:05.322Z,36.82
2017-05-17T02:08:15.541Z,36.82
2017-05-17T02:09:26.162Z,36.82
2017-05-17T02:10:36.069Z,36.82
2017-05-17T02:11:46.031Z,36.8
2017-05-17T02:12:55.631Z,36.82
2017-05-17T02:14:05.304Z,36.82
2017-05-17T02:15:14.608Z,36.82
2017-05-17T02:16:24.201Z,36.91
2017-05-17T02:17:34.103Z,36.91
2017-05-17T02:18:43.725Z,37.01
2017-05-17T02:19:53.631Z,37.01
2017-05-17T02:21:03.248Z,36.91
2017-05-17T02:22:12.853Z,36.99
2017-05-17T02:23:22.456Z,37.01
2017-05-17T02:24:32.374Z,36.9
2017-05-17T02:25:42.343Z,36.9
2017-05-17T02:26:51.948Z,36.9
2017-05-17T02:28:01.563Z,36.99
2017-05-17T02:29:11.466Z,37.01
2017-05-17T02:30:21.392Z,36.99
2017-05-17T02:31:31.333Z,36.9
2017-05-17T02:32:41.606Z,36.82
2017-05-17T02:33:51.836Z,36.8
2017-05-17T02:35:02.056Z,36.91
2017-05-17T02:36:11.986Z,36.99
2017-05-17T02:37:21.914Z,37.09
2017-05-17T02:38:31.516Z,37.19
2017-05-17T02:39:41.449Z,37.01
2017-05-17T02:40:51.437Z,37.01
2017-05-17T02:42:01.057Z,36.8
2017-05-17T02:43:10.961Z,36.8
2017-05-17T02:44:20.880Z,36.82
2017-05-17T02:45:31.114Z,36.9
2017-05-17T02:46:40.431Z,37.09
2017-05-17T02:47:50.038Z,36.8
2017-05-17T02:49:00.251Z,36.8
2017-05-17T02:50:09.866Z,37.01
2017-05-17T02:51:19.777Z,36.99
2017-05-17T02:52:29.682Z,37.11
2017-05-17T02:53:39.942Z,37.01
2017-05-17T02:54:49.893Z,36.9
2017-05-17T02:55:59.515Z,36.8
2017-05-17T02:57:09.433Z,37.21
2017-05-17T02:58:19.345Z,36.7
2017-05-17T02:59:29.568Z,36.7
2017-05-17T03:00:39.172Z,36.91
2017-05-17T03:01:49.386Z,36.82
2017-05-17T03:02:59.607Z,36.7
2017-05-17T03:04:09.841Z,36.99
2017-05-17T03:05:19.775Z,36.99
2017-05-17T03:06:29.374Z,36.99
2017-05-17T03:07:39.606Z,36.7
2017-05-17T03:08:49.205Z,36.7
2017-05-17T03:09:58.817Z,36.8
2017-05-17T03:11:08.719Z,36.82
2017-05-17T03:12:18.951Z,36.7
2017-05-17T03:13:29.171Z,36.7
2017-05-17T03:14:39.398Z,36.8
2017-05-17T03:15:49.616Z,36.9
2017-05-17T03:16:59.232Z,36.99
2017-05-17T03:18:09.147Z,36.7
2017-05-17T03:19:18.450Z,37.09
2017-05-17T03:20:28.375Z,36.99
2017-05-17T03:21:38.292Z,36.99
2017-05-17T03:22:48.502Z,36.9
2017-05-17T03:23:58.719Z,36.9
2017-05-17T03:25:08.948Z,36.9
2017-05-17T03:26:19.173Z,36.9
2017-05-17T03:27:29.393Z,37.09
2017-05-17T03:28:39.315Z,36.99
2017-05-17T03:29:49.236Z,36.9
2017-05-17T03:30:59.168Z,37.09
2017-05-17T03:32:08.806Z,36.9
2017-05-17T03:33:18.718Z,36.7
2017-05-17T03:34:28.638Z,36.7
2017-05-17T03:35:38.858Z,36.8
2017-05-17T03:36:49.140Z,36.8
2017-05-17T03:37:59.364Z,36.6
2017-05-17T03:39:09.587Z,36.8
2017-05-17T03:40:19.502Z,36.8
2017-05-17T03:41:29.730Z,37.09
2017-05-17T03:42:39.348Z,36.7
2017-05-17T03:43:49.559Z,36.7
2017-05-17T03:44:59.484Z,36.7
2017-05-17T03:46:09.318Z,36.9
2017-05-17T03:47:18.934Z,36.8
2017-05-17T03:48:29.149Z,36.9
2017-05-17T03:49:38.765Z,36.8
2017-05-17T03:50:48.723Z,36.9
2017-05-17T03:51:58.631Z,36.8
2017-05-17T03:53:08.275Z,36.8
2017-05-17T03:54:18.559Z,36.7
2017-05-17T03:55:28.466Z,36.7
2017-05-17T03:56:38.679Z,36.7
2017-05-17T03:57:48.584Z,36.7
2017-05-17T03:58:58.508Z,36.8
2017-05-17T04:00:08.444Z,37.19
2017-05-17T04:01:17.746Z,36.9
2017-05-17T04:02:27.380Z,36.99
2017-05-17T04:03:37.603Z,36.7
2017-05-17T04:04:47.531Z,36.99
2017-05-17T04:05:57.447Z,36.99
2017-05-17T04:07:07.079Z,36.9
2017-05-17T04:08:17.326Z,36.82
2017-05-17T04:09:27.249Z,36.72
2017-05-17T04:10:37.489Z,36.82
2017-05-17T04:11:47.405Z,37.01
2017-05-17T04:12:57.653Z,37.09
2017-05-17T04:14:07.564Z,36.99
2017-05-17T04:15:17.529Z,37.11
2017-05-17T04:16:27.520Z,37.01
2017-05-17T04:17:37.763Z,36.91
2017-05-17T04:18:47.684Z,36.82
2017-05-17T04:19:57.934Z,36.91
2017-05-17T04:21:07.843Z,36.82
2017-05-17T04:22:18.090Z,36.91
2017-05-17T04:23:28.031Z,36.99
2017-05-17T04:24:37.646Z,36.91
2017-05-17T04:25:47.587Z,36.91
2017-05-17T04:26:57.820Z,36.91
2017-05-17T04:28:08.051Z,36.8
2017-05-17T04:29:18.254Z,36.82
2017-05-17T04:30:28.472Z,36.91
2017-05-17T04:31:38.693Z,36.91
2017-05-17T04:32:48.951Z,36.82
2017-05-17T04:33:58.932Z,36.82
2017-05-17T04:35:08.531Z,36.82
2017-05-17T04:36:18.128Z,36.91
2017-05-17T04:37:28.370Z,36.82
2017-05-17T04:38:38.651Z,36.72
2017-05-17T04:39:48.870Z,36.62
2017-05-17T04:40:58.807Z,36.52
2017-05-17T04:42:08.103Z,36.43
2017-05-17T04:43:17.708Z,36.43
2017-05-17T04:44:27.943Z,36.52
2017-05-17T04:45:37.876Z,36.43
2017-05-17T04:46:48.490Z,36.43
2017-05-17T04:47:58.437Z,36.52
2017-05-17T04:49:07.750Z,36.33
2017-05-17T04:50:17.039Z,36.33
2017-05-17T04:51:26.719Z,36.24
2017-05-17T04:52:36.634Z,36.62
2017-05-17T04:53:45.949Z,36.62
2017-05-17T04:54:56.168Z,36.43
2017-05-17T04:56:06.090Z,36.24
2017-05-17T04:57:15.812Z,36.33
2017-05-17T04:58:25.766Z,36.44
2017-05-17T04:59:35.108Z,36.24
2017-05-17T05:00:45.336Z,35.96
2017-05-17T05:01:55.264Z,35.96
2017-05-17T05:03:05.197Z,36.16
2017-05-17T05:04:15.213Z,35.96
2017-05-17T05:05:24.848Z,35.86
2017-05-17T05:06:35.121Z,36.16
2017-05-17T05:07:45.524Z,35.86
2017-05-17T05:08:55.458Z,36.06
2017-05-17T05:10:05.691Z,35.77
2017-05-17T05:11:15.322Z,35.67
2017-05-17T05:12:25.551Z,35.38
2017-05-17T05:13:35.485Z,35.4
2017-05-17T05:14:45.780Z,35.4
2017-05-17T05:15:55.450Z,35.3
2017-05-17T05:17:05.412Z,35.21
2017-05-17T05:18:15.351Z,35.4
2017-05-17T05:19:25.320Z,35.69
2017-05-17T05:20:35.251Z,35.67
2017-05-17T05:21:45.513Z,35.67
2017-05-17T05:22:56.132Z,36.06
2017-05-17T05:24:05.757Z,35.86
2017-05-17T05:25:15.378Z,35.96
2017-05-17T05:26:25.032Z,35.96
2017-05-17T05:27:34.665Z,36.06
2017-05-17T05:28:44.607Z,35.67
2017-05-17T05:29:54.520Z,35.77
2017-05-17T05:31:04.821Z,35.57
2017-05-17T05:32:15.069Z,35.57
2017-05-17T05:33:24.673Z,35.28
2017-05-17T05:34:34.598Z,35.4
2017-05-17T05:35:44.263Z,35.4
2017-05-17T05:36:54.489Z,35.3
2017-05-17T05:38:04.720Z,35.21
2017-05-17T05:39:14.647Z,35.49
2017-05-17T05:40:24.312Z,34.62
2017-05-17T05:41:34.592Z,34.25
2017-05-17T05:42:44.830Z,33.2
2017-05-17T05:43:54.454Z,32.65
2017-05-17T05:45:04.665Z,31.88
2017-05-17T05:46:14.881Z,31.03
2017-05-17T05:47:24.796Z,30.46
2017-05-17T05:48:34.740Z,30.08
2017-05-17T05:49:44.689Z,29.53
2017-05-17T05:50:54.668Z,29.04
2017-05-17T05:52:04.598Z,28.77
2017-05-17T05:53:14.550Z,28.09
2017-05-17T05:54:24.804Z,28.11
2017-05-17T05:55:35.053Z,27.64
2017-05-17T05:56:44.724Z,27.15
2017-05-17T05:57:54.666Z,26.97
2017-05-17T05:59:04.617Z,26.68
2017-05-17T06:00:14.235Z,26.2
2017-05-17T06:01:24.185Z,26.11
2017-05-17T06:02:33.833Z,25.73
2017-05-17T06:03:43.481Z,25.65
2017-05-17T06:04:53.731Z,25.55
2017-05-17T06:06:03.355Z,25.84
2017-05-17T06:07:12.681Z,26.42
2017-05-17T06:08:21.685Z,26.99
2017-05-17T06:09:31.310Z,27.87
2017-05-17T06:10:41.538Z,27.75
2017-05-17T06:11:51.483Z,27.76
2017-05-17T06:13:01.775Z,27.27
2017-05-17T06:14:11.724Z,26.79
2017-05-17T06:15:21.361Z,26.7
2017-05-17T06:16:31.309Z,26.32
2017-05-17T06:17:40.984Z,25.84
2017-05-17T06:18:50.915Z,25.56
2017-05-17T06:20:01.150Z,25.56
2017-05-17T06:21:10.457Z,24.98
2017-05-17T06:22:20.385Z,24.99
2017-05-17T06:23:30.629Z,24.62
2017-05-17T06:24:40.557Z,23.94
2017-05-17T06:25:50.831Z,23.75
2017-05-17T06:27:00.479Z,23.67
2017-05-17T06:28:10.419Z,23.28
2017-05-17T06:29:20.667Z,22.89
2017-05-17T06:30:30.939Z,23.1
2017-05-17T06:31:40.568Z,23.49
2017-05-17T06:32:50.836Z,23.96
2017-05-17T06:34:00.784Z,24.93
2017-05-17T06:35:11.022Z,25.7
2017-05-17T06:36:21.261Z,26.76
2017-05-17T06:37:30.937Z,27.33
2017-05-17T06:38:40.574Z,27.9
2017-05-17T06:39:50.814Z,28.28
2017-05-17T06:41:01.060Z,28.94
2017-05-17T06:42:11.320Z,29.32
2017-05-17T06:43:21.258Z,29.8
2017-05-17T06:44:31.202Z,30.37
2017-05-17T06:45:41.148Z,30.57
2017-05-17T06:46:51.398Z,31.04
2017-05-17T06:48:01.652Z,31.22
2017-05-17T06:49:11.636Z,31.7
2017-05-17T06:50:21.266Z,31.88
2017-05-17T06:51:31.226Z,31.98
2017-05-17T06:52:41.184Z,32.16
2017-05-17T06:53:51.432Z,32.65
2017-05-17T06:55:01.068Z,32.65
2017-05-17T06:56:11.113Z,32.65
2017-05-17T06:57:21.035Z,32.43
2017-05-17T06:58:30.970Z,31.96
2017-05-17T06:59:40.600Z,30.91
2017-05-17T07:00:50.829Z,30.06
2017-05-17T07:02:00.768Z,29
2017-05-17T07:03:10.721Z,27.95
2017-05-17T07:04:20.975Z,27.29
2017-05-17T07:05:31.278Z,26.53
2017-05-17T07:06:41.593Z,25.95
2017-05-17T07:07:51.838Z,25.39
2017-05-17T07:09:01.156Z,24.91
2017-05-17T07:10:11.440Z,24.05
2017-05-17T07:11:21.129Z,23.67
2017-05-17T07:12:31.090Z,23.09
2017-05-17T07:13:40.726Z,23
2017-05-17T07:14:50.680Z,22.52
2017-05-17T07:16:00.617Z,22.25
2017-05-17T07:17:10.539Z,21.95
2017-05-17T07:18:20.169Z,21.87
2017-05-17T07:19:29.504Z,21.48
2017-05-17T07:20:39.139Z,21.1
2017-05-17T07:21:49.383Z,21.21
2017-05-17T07:22:58.721Z,20.83
2017-05-17T07:24:08.659Z,20.53
2017-05-17T07:25:18.986Z,20.62
2017-05-17T07:26:28.922Z,20.83
2017-05-17T07:27:38.882Z,20.64
2017-05-17T07:28:48.518Z,20.34
2017-05-17T07:29:58.479Z,20.25
2017-05-17T07:31:08.110Z,20.35
2017-05-17T07:32:18.375Z,20.35
2017-05-17T07:33:28.314Z,19.87
2017-05-17T07:34:38.565Z,20.06
2017-05-17T07:35:48.523Z,19.96
2017-05-17T07:36:58.764Z,20.26
2017-05-17T07:38:08.731Z,20.26
2017-05-17T07:39:18.984Z,20.56
2017-05-17T07:40:29.241Z,20.65
2017-05-17T07:41:38.881Z,21.04
2017-05-17T07:42:48.524Z,21.14
2017-05-17T07:43:58.463Z,21.24
2017-05-17T07:45:08.401Z,21.34
2017-05-17T07:46:18.034Z,21.72
2017-05-17T07:47:27.971Z,21.82
2017-05-17T07:48:37.621Z,22.2
2017-05-17T07:49:47.264Z,22.01
2017-05-17T07:50:57.225Z,22.11
2017-05-17T07:52:07.556Z,22.41
2017-05-17T07:53:17.512Z,22.5
2017-05-17T07:54:27.756Z,22.5
2017-05-17T07:55:37.702Z,22.59
2017-05-17T07:56:47.649Z,22.39
2017-05-17T07:57:56.994Z,22.59
2017-05-17T07:59:07.254Z,22.89
2017-05-17T08:00:16.903Z,22.78
2017-05-17T08:01:27.156Z,23.08
2017-05-17T08:02:36.819Z,22.99
2017-05-17T08:03:46.768Z,23.17
2017-05-17T08:04:56.728Z,23.27
2017-05-17T08:06:06.376Z,23.27
2017-05-17T08:07:16.625Z,23.27
2017-05-17T08:08:26.874Z,23.37
2017-05-17T08:09:36.842Z,23.57
2017-05-17T08:10:46.461Z,23.27
2017-05-17T08:11:56.704Z,23.27
2017-05-17T08:13:06.654Z,23.28
2017-05-17T08:14:16.912Z,23.18
2017-05-17T08:15:27.147Z,23.08
2017-05-17T08:16:37.392Z,23.27
2017-05-17T08:17:47.348Z,23.18
2017-05-17T08:18:57.293Z,23.28
2017-05-17T08:20:07.256Z,23.08
2017-05-17T08:21:16.598Z,23.28
2017-05-17T08:22:26.533Z,23.18
2017-05-17T08:23:36.787Z,23.38
2017-05-17T08:24:46.423Z,23.28
2017-05-17T08:25:56.074Z,23.38
2017-05-17T08:27:06.393Z,23.28
2017-05-17T08:28:16.043Z,23.28
2017-05-17T08:29:25.994Z,23.28
2017-05-17T08:30:35.956Z,23.28
2017-05-17T08:31:45.623Z,23.18
2017-05-17T08:32:55.257Z,23.28
2017-05-17T08:34:05.518Z,23.28
2017-05-17T08:35:15.445Z,23.38
2017-05-17T08:36:25.383Z,23.38
2017-05-17T08:37:35.033Z,23.18
2017-05-17T08:38:44.990Z,23.38
2017-05-17T08:39:54.625Z,23.18
2017-05-17T08:41:04.894Z,23.08
2017-05-17T08:42:14.542Z,23.28
2017-05-17T08:43:24.489Z,23.18
2017-05-17T08:44:34.738Z,23.28
2017-05-17T08:45:44.059Z,23.38
2017-05-17T08:46:53.705Z,23.77
2017-05-17T08:48:03.635Z,24.06
2017-05-17T08:49:13.262Z,24.05
2017-05-17T08:50:23.198Z,25.12
2017-05-17T08:51:33.138Z,25.4
2017-05-17T08:52:43.068Z,26.07
2017-05-17T08:53:53.018Z,26.35
2017-05-17T08:55:02.646Z,27.22
2017-05-17T08:56:12.588Z,27.31
2017-05-17T08:57:22.524Z,27.88
2017-05-17T08:58:32.485Z,28.26
2017-05-17T08:59:42.416Z,28.64
2017-05-17T09:00:52.049Z,29.21
2017-05-17T09:02:02.296Z,29.5
2017-05-17T09:03:12.552Z,29.69
2017-05-17T09:04:22.490Z,29.97
2017-05-17T09:05:32.433Z,30.35
2017-05-17T09:06:42.397Z,30.43
2017-05-17T09:07:52.650Z,31.01
2017-05-17T09:09:02.582Z,31.49
2017-05-17T09:10:12.833Z,31.67
2017-05-17T09:11:22.471Z,31.87
2017-05-17T09:12:32.414Z,32.04
2017-05-17T09:13:42.117Z,32.34
2017-05-17T09:14:51.743Z,32.53
2017-05-17T09:16:02.065Z,32.71
2017-05-17T09:17:12.012Z,33.01
2017-05-17T09:18:21.334Z,33.38
2017-05-17T09:19:31.598Z,33.28
2017-05-17T09:20:41.842Z,33.65
2017-05-17T09:21:51.167Z,33.56
2017-05-17T09:23:01.095Z,33.85
2017-05-17T09:24:10.721Z,33.93
2017-05-17T09:25:19.752Z,33.93
2017-05-17T09:26:29.698Z,33.93
2017-05-17T09:27:39.945Z,34.4
2017-05-17T09:28:49.891Z,34.31
2017-05-17T09:29:59.851Z,34.4
2017-05-17T09:31:09.479Z,34.4
2017-05-17T09:32:19.101Z,34.4
2017-05-17T09:33:28.420Z,34.69
2017-05-17T09:34:37.749Z,34.68
2017-05-17T09:35:47.389Z,34.58
2017-05-17T09:36:57.639Z,34.39
2017-05-17T09:38:07.301Z,34.58
2017-05-17T09:39:17.544Z,34.19
2017-05-17T09:40:27.818Z,34.56
2017-05-17T09:41:37.127Z,34.47
2017-05-17T09:42:47.082Z,34.17
2017-05-17T09:43:57.334Z,34.37
2017-05-17T09:45:07.266Z,34.37
2017-05-17T09:46:17.226Z,34.37
2017-05-17T09:47:27.540Z,34.66
2017-05-17T09:48:37.202Z,34.55
2017-05-17T09:49:47.169Z,34.95
2017-05-17T09:50:57.123Z,34.94
2017-05-17T09:52:07.075Z,34.64
2017-05-17T09:53:16.732Z,34.64
2017-05-17T09:54:26.969Z,34.74
2017-05-17T09:55:36.893Z,34.74
2017-05-17T09:56:46.844Z,34.82
2017-05-17T09:57:56.802Z,34.82
2017-05-17T09:59:06.723Z,34.92
2017-05-17T10:00:17.014Z,34.72
2017-05-17T10:01:26.637Z,34.82
2017-05-17T10:02:36.904Z,34.92
2017-05-17T10:03:47.146Z,34.92
2017-05-17T10:04:56.489Z,34.82
2017-05-17T10:06:06.423Z,34.92
2017-05-17T10:07:16.346Z,34.92
2017-05-17T10:08:26.579Z,35
2017-05-17T10:09:35.913Z,35.1
2017-05-17T10:10:46.224Z,35.58
2017-05-17T10:11:55.876Z,35.58
2017-05-17T10:13:05.811Z,35.58
2017-05-17T10:14:15.449Z,35.49
2017-05-17T10:15:25.084Z,35.49
2017-05-17T10:16:35.331Z,35.49
2017-05-17T10:17:45.015Z,35.49
2017-05-17T10:18:55.310Z,35.39
2017-05-17T10:20:05.268Z,35.49
2017-05-17T10:21:14.925Z,35.49
2017-05-17T10:22:24.891Z,35.49
2017-05-17T10:23:34.539Z,35.27
2017-05-17T10:24:44.473Z,35.37
2017-05-17T10:25:54.743Z,35.39
2017-05-17T10:27:04.686Z,35.47
2017-05-17T10:28:14.624Z,35.57
2017-05-17T10:29:24.262Z,35.37
2017-05-17T10:30:33.908Z,35.47
2017-05-17T10:31:43.564Z,35.47
2017-05-17T10:32:53.202Z,35.47
2017-05-17T10:34:03.158Z,35.47
2017-05-17T10:35:12.174Z,35.37
2017-05-17T10:36:21.521Z,35.27
2017-05-17T10:37:31.443Z,35.37
2017-05-17T10:38:41.686Z,35.27
2017-05-17T10:39:51.625Z,35.37
2017-05-17T10:41:01.883Z,35.57
2017-05-17T10:42:11.806Z,35.47
2017-05-17T10:43:21.440Z,35.47
2017-05-17T10:44:31.077Z,35.47
2017-05-17T10:45:41.311Z,35.35
2017-05-17T10:46:50.635Z,35.35
2017-05-17T10:48:00.883Z,35.35
2017-05-17T10:49:10.210Z,35.37
2017-05-17T10:50:19.843Z,35.06
2017-05-17T10:51:29.780Z,35.45
2017-05-17T10:52:40.025Z,35.06
2017-05-17T10:53:49.963Z,35.06
2017-05-17T10:54:59.906Z,34.97
2017-05-17T10:56:09.844Z,34.97
2017-05-17T10:57:19.156Z,35.06
2017-05-17T10:58:29.089Z,35.06
2017-05-17T10:59:38.719Z,35.16
2017-05-17T11:00:48.680Z,35.06
2017-05-17T11:01:58.041Z,34.97
2017-05-17T11:03:07.673Z,35.06
2017-05-17T11:04:17.316Z,34.77
2017-05-17T11:05:27.591Z,34.87
2017-05-17T11:06:37.279Z,34.87
2017-05-17T11:07:46.613Z,34.77
2017-05-17T11:08:56.862Z,34.77
2017-05-17T11:10:06.493Z,34.77
2017-05-17T11:11:16.115Z,34.85
2017-05-17T11:12:26.056Z,34.87
2017-05-17T11:13:36.003Z,34.77
2017-05-17T11:14:46.254Z,34.97
2017-05-17T11:15:56.507Z,34.77
2017-05-17T11:17:06.126Z,34.66
2017-05-17T11:18:16.048Z,34.77
2017-05-17T11:19:26.280Z,34.66
2017-05-17T11:20:36.513Z,34.67
2017-05-17T11:21:46.456Z,34.77
2017-05-17T11:22:56.088Z,34.67
2017-05-17T11:24:06.039Z,34.77
2017-05-17T11:25:16.306Z,34.77
2017-05-17T11:26:26.548Z,34.67
2017-05-17T11:27:36.156Z,34.67
2017-05-17T11:28:46.410Z,34.67
2017-05-17T11:29:56.661Z,34.67
2017-05-17T11:31:05.985Z,34.66
2017-05-17T11:32:16.230Z,34.66
2017-05-17T11:33:25.878Z,34.77
2017-05-17T11:34:35.835Z,34.75
2017-05-17T11:35:46.114Z,34.75
2017-05-17T11:36:56.371Z,34.67
2017-05-17T11:38:06.383Z,34.66
2017-05-17T11:39:16.345Z,34.75
2017-05-17T11:40:26.292Z,34.56
2017-05-17T11:41:36.226Z,34.75
2017-05-17T11:42:46.472Z,34.75
2017-05-17T11:43:56.409Z,34.56
2017-05-17T11:45:06.354Z,34.36
2017-05-17T11:46:16.294Z,34.46
2017-05-17T11:47:26.562Z,34.46
2017-05-17T11:48:36.519Z,34.46
2017-05-17T11:49:46.460Z,35.05
2017-05-17T11:50:56.383Z,34.56
2017-05-17T11:52:06.296Z,34.46
2017-05-17T11:53:16.537Z,34.46
2017-05-17T11:54:27.154Z,34.56
2017-05-17T11:55:36.787Z,34.46
2017-05-17T11:56:47.033Z,34.75
2017-05-17T11:57:56.376Z,34.56
2017-05-17T11:59:06.612Z,34.56
2017-05-17T12:00:16.556Z,34.56
2017-05-17T12:01:26.512Z,34.75
2017-05-17T12:02:35.852Z,34.85
2017-05-17T12:03:45.486Z,34.36
2017-05-17T12:04:55.713Z,34.85
2017-05-17T12:06:05.030Z,34.95
2017-05-17T12:07:14.958Z,34.85
2017-05-17T12:08:24.890Z,34.36
2017-05-17T12:09:34.822Z,34.36
2017-05-17T12:10:44.745Z,34.85
2017-05-17T12:11:54.392Z,34.36
2017-05-17T12:13:04.624Z,34.36
2017-05-17T12:14:14.569Z,34.46
2017-05-17T12:15:24.808Z,34.66
2017-05-17T12:16:34.776Z,34.56
2017-05-17T12:17:45.021Z,34.46
2017-05-17T12:18:55.268Z,34.56
2017-05-17T12:20:05.217Z,34.56
2017-05-17T12:21:15.159Z,34.56
2017-05-17T12:22:25.396Z,34.66
2017-05-17T12:23:35.351Z,34.75
2017-05-17T12:24:45.618Z,34.66
2017-05-17T12:25:54.937Z,34.66
2017-05-17T12:27:05.196Z,34.56
2017-05-17T12:28:14.527Z,34.27
2017-05-17T12:29:23.861Z,34.66
2017-05-17T12:30:34.110Z,34.66
2017-05-17T12:31:44.042Z,34.56
2017-05-17T12:32:53.655Z,34.75
2017-05-17T12:34:03.593Z,34.36
2017-05-17T12:35:13.534Z,34.75
2017-05-17T12:36:22.856Z,34.66
2017-05-17T12:37:33.093Z,34.75
2017-05-17T12:38:42.736Z,34.66
2017-05-17T12:39:52.734Z,34.27
2017-05-17T12:41:02.671Z,34.66
2017-05-17T12:42:12.907Z,34.66
2017-05-17T12:43:22.832Z,34.36
2017-05-17T12:44:33.072Z,34.46
2017-05-17T12:45:43.002Z,34.36
2017-05-17T12:46:53.261Z,34.36
2017-05-17T12:48:03.196Z,34.36
2017-05-17T12:49:13.127Z,34.27
2017-05-17T12:50:22.762Z,34.46
2017-05-17T12:51:32.728Z,34.36
2017-05-17T12:52:42.667Z,34.17
2017-05-17T12:53:52.593Z,34.36
2017-05-17T12:55:02.227Z,34.46
2017-05-17T12:56:11.852Z,34.46
2017-05-17T12:57:21.471Z,34.56
2017-05-17T12:58:31.130Z,34.08
2017-05-17T12:59:41.381Z,34.46
2017-05-17T13:00:51.019Z,34.46
2017-05-17T13:02:00.951Z,34.46
2017-05-17T13:03:10.275Z,34.36
2017-05-17T13:04:20.216Z,34.56
2017-05-17T13:05:30.449Z,34.46
2017-05-17T13:06:40.707Z,34.46
2017-05-17T13:07:50.638Z,34.56
2017-05-17T13:08:59.957Z,34.56
2017-05-17T13:10:09.891Z,34.66
2017-05-17T13:11:19.218Z,34.56
2017-05-17T13:12:29.463Z,34.56
2017-05-17T13:13:39.708Z,34.46
2017-05-17T13:14:49.660Z,34.56
2017-05-17T13:15:59.009Z,34.56
2017-05-17T13:17:08.943Z,34.46
2017-05-17T13:18:19.195Z,34.66
2017-05-17T13:19:29.490Z,34.56
2017-05-17T13:20:39.414Z,34.46
2017-05-17T13:21:49.665Z,34.17
2017-05-17T13:22:59.595Z,34.66
2017-05-17T13:24:09.215Z,34.56
2017-05-17T13:25:19.145Z,34.66
2017-05-17T13:26:28.776Z,34.66
2017-05-17T13:27:39.011Z,34.08
2017-05-17T13:28:48.948Z,34.66
2017-05-17T13:29:58.637Z,34.75
2017-05-17T13:31:08.571Z,34.66
2017-05-17T13:32:18.817Z,34.08
2017-05-17T13:33:28.769Z,34.66
2017-05-17T13:34:38.421Z,34.66
2017-05-17T13:35:48.063Z,34.17
2017-05-17T13:36:57.991Z,34.17
2017-05-17T13:38:08.235Z,34.56
2017-05-17T13:39:18.176Z,34.17
2017-05-17T13:40:28.107Z,34.27
2017-05-17T13:41:38.060Z,34.27
2017-05-17T13:42:47.994Z,34.66
2017-05-17T13:43:57.318Z,34.66
2017-05-17T13:45:07.265Z,34.66
2017-05-17T13:46:17.214Z,34.27
2017-05-17T13:47:26.865Z,34.27
2017-05-17T13:48:36.205Z,34.27
2017-05-17T13:49:46.147Z,34.36
2017-05-17T13:50:56.085Z,34.27
2017-05-17T13:52:06.041Z,33.69
2017-05-17T13:53:15.676Z,34.36
2017-05-17T13:54:25.604Z,34.17
2017-05-17T13:55:35.861Z,34.27
2017-05-17T13:56:46.104Z,34.27
2017-05-17T13:57:55.733Z,34.27
2017-05-17T13:59:05.366Z,34.27
2017-05-17T14:00:15.011Z,34.36
2017-05-17T14:01:24.335Z,34.27
2017-05-17T14:02:34.629Z,34.36
2017-05-17T14:03:44.290Z,34.36
2017-05-17T14:04:53.929Z,34.27
2017-05-17T14:06:04.181Z,34.27
2017-05-17T14:07:13.805Z,34.27
2017-05-17T14:08:24.144Z,34.27
2017-05-17T14:09:34.384Z,34.27
2017-05-17T14:10:44.015Z,34.36
2017-05-17T14:11:53.655Z,34.36
2017-05-17T14:13:03.274Z,34.27
2017-05-17T14:14:13.227Z,34.36
2017-05-17T14:15:23.474Z,34.27
2017-05-17T14:16:33.119Z,34.27
2017-05-17T14:17:43.357Z,34.27
2017-05-17T14:18:53.298Z,34.27
2017-05-17T14:20:02.631Z,34.27
2017-05-17T14:21:12.564Z,34.46
2017-05-17T14:22:21.886Z,34.17
2017-05-17T14:23:31.809Z,34.36
2017-05-17T14:24:41.437Z,34.46
2017-05-17T14:25:51.060Z,34.27
2017-05-17T14:27:01.045Z,34.36
2017-05-17T14:28:11.295Z,34.36
2017-05-17T14:29:20.941Z,34.36
2017-05-17T14:30:30.890Z,34.46
2017-05-17T14:31:40.519Z,34.36
2017-05-17T14:32:50.461Z,34.27
2017-05-17T14:34:00.718Z,34.36
2017-05-17T14:35:10.042Z,34.36
2017-05-17T14:36:19.683Z,34.17
2017-05-17T14:37:29.313Z,34.17
2017-05-17T14:38:39.259Z,34.27
2017-05-17T14:39:48.879Z,34.27
2017-05-17T14:40:59.142Z,34.27
2017-05-17T14:42:09.098Z,34.08
2017-05-17T14:43:18.414Z,34.08
2017-05-17T14:44:28.679Z,34.08
2017-05-17T14:45:38.620Z,34.08
2017-05-17T14:46:48.537Z,34.17
2017-05-17T14:47:57.840Z,34.27
2017-05-17T14:49:07.765Z,34.17
2017-05-17T14:50:17.098Z,34.17
2017-05-17T14:51:27.035Z,34.17
2017-05-17T14:52:36.662Z,34.08
2017-05-17T14:53:46.595Z,34.17
2017-05-17T14:54:56.830Z,34.17
2017-05-17T14:56:06.154Z,34.08
2017-05-17T14:57:15.782Z,34.17
2017-05-17T14:58:25.422Z,34.08
2017-05-17T14:59:35.353Z,34.27
2017-05-17T15:00:45.589Z,33.98
2017-05-17T15:01:55.831Z,34.27
2017-05-17T15:03:05.218Z,33.98